createdAt,value
2019-02-17T00:01:54.934Z,16.73
2019-02-17T00:04:25.897Z,15.53
2019-02-17T00:06:56.903Z,13.57
2019-02-17T00:09:27.865Z,16.50
2019-02-17T00:11:58.911Z,15.37
2019-02-17T00:14:31.065Z,15.37
2019-02-17T00:17:02.156Z,18.13
2019-02-17T00:19:34.203Z,16.10
2019-02-17T00:22:05.244Z,17.43
2019-02-17T00:24:36.425Z,16.50
2019-02-17T00:27:07.394Z,19.10
2019-02-17T00:29:39.852Z,18.10
2019-02-17T00:32:10.809Z,20.60
2019-02-17T00:34:41.728Z,19.20
2019-02-17T00:37:12.665Z,16.87
2019-02-17T00:39:43.754Z,17.47
2019-02-17T00:42:16.174Z,17.70
2019-02-17T00:44:47.242Z,21.27
2019-02-17T00:47:18.320Z,18.83
2019-02-17T00:49:49.255Z,23.80
2019-02-17T00:52:20.243Z,23.10
2019-02-17T00:54:51.168Z,29.17
2019-02-17T00:57:22.087Z,20.57
2019-02-17T00:59:54.542Z,19.00
2019-02-17T01:02:25.516Z,20.07
2019-02-17T01:04:56.500Z,20.77
2019-02-17T01:07:27.547Z,21.00
2019-02-17T01:09:58.649Z,22.87
2019-02-17T01:12:29.616Z,24.57
2019-02-17T01:15:00.484Z,18.60
2019-02-17T01:17:31.547Z,25.83
2019-02-17T01:20:02.424Z,20.37
2019-02-17T01:22:33.305Z,19.67
2019-02-17T01:25:04.438Z,18.83
2019-02-17T01:27:35.348Z,20.97
2019-02-17T01:30:07.299Z,23.73
2019-02-17T01:32:38.238Z,19.47
2019-02-17T01:35:09.250Z,18.57
2019-02-17T01:37:40.187Z,19.83
2019-02-17T01:40:12.114Z,24.70
2019-02-17T01:42:43.179Z,20.97
2019-02-17T01:45:14.434Z,24.13
2019-02-17T01:47:45.320Z,22.63
2019-02-17T01:50:19.268Z,21.63
2019-02-17T01:52:50.106Z,30.93
2019-02-17T01:55:21.069Z,21.80
2019-02-17T01:57:51.919Z,21.87
2019-02-17T02:00:23.013Z,21.63
2019-02-17T02:02:54.017Z,19.50
2019-02-17T02:05:24.956Z,19.37
2019-02-17T02:07:56.952Z,19.53
2019-02-17T02:10:28.837Z,20.77
2019-02-17T02:12:59.758Z,17.60
2019-02-17T02:15:31.795Z,21.47
2019-02-17T02:18:02.803Z,24.93
2019-02-17T02:20:33.728Z,20.87
2019-02-17T02:23:04.686Z,23.10
2019-02-17T02:25:35.821Z,18.63
2019-02-17T02:28:06.711Z,17.50
2019-02-17T02:30:37.654Z,21.93
2019-02-17T02:33:08.600Z,17.23
2019-02-17T02:35:39.504Z,19.00
2019-02-17T02:38:13.554Z,20.13
2019-02-17T02:40:44.040Z,17.33
2019-02-17T02:43:17.587Z,19.77
2019-02-17T02:45:48.791Z,16.83
2019-02-17T02:48:20.858Z,20.63
2019-02-17T02:50:53.229Z,21.37
2019-02-17T02:53:24.445Z,19.80
2019-02-17T02:55:55.345Z,20.03
2019-02-17T02:58:26.259Z,22.93
2019-02-17T03:00:57.128Z,20.37
2019-02-17T03:03:28.044Z,20.07
2019-02-17T03:06:15.731Z,21.20
2019-02-17T03:08:48.194Z,17.53
2019-02-17T03:11:19.151Z,18.27
2019-02-17T03:13:50.090Z,17.30
2019-02-17T03:16:21.142Z,17.93
2019-02-17T03:18:52.043Z,18.90
2019-02-17T03:21:22.993Z,17.77
2019-02-17T03:23:53.897Z,18.23
2019-02-17T03:26:24.778Z,17.57
2019-02-17T03:28:55.660Z,18.27
2019-02-17T03:31:26.532Z,15.57
2019-02-17T03:33:57.442Z,16.23
2019-02-17T03:36:28.420Z,15.10
2019-02-17T03:38:59.430Z,17.70
2019-02-17T03:41:32.194Z,17.93
2019-02-17T03:44:04.594Z,17.73
2019-02-17T03:46:35.500Z,19.80
2019-02-17T03:49:06.399Z,13.97
2019-02-17T03:51:38.481Z,13.57
2019-02-17T03:54:09.364Z,19.33
2019-02-17T03:56:40.249Z,17.40
2019-02-17T03:59:11.145Z,13.53
2019-02-17T04:01:42.028Z,19.93
2019-02-17T04:04:13.001Z,20.17
2019-02-17T04:06:43.997Z,18.87
2019-02-17T04:09:14.899Z,17.50
2019-02-17T04:11:47.618Z,21.73
2019-02-17T04:14:18.472Z,16.10
2019-02-17T04:16:49.375Z,22.73
2019-02-17T04:19:21.488Z,16.80
2019-02-17T04:21:52.389Z,20.53
2019-02-17T04:24:23.305Z,15.80
2019-02-17T04:27:04.540Z,20.13
2019-02-17T04:29:35.452Z,21.50
2019-02-17T04:32:09.092Z,20.27
2019-02-17T04:34:40.179Z,18.87
2019-02-17T04:37:15.199Z,18.83
2019-02-17T04:39:46.052Z,15.00
2019-02-17T04:42:16.947Z,19.00
2019-02-17T04:44:49.657Z,16.67
2019-02-17T04:47:20.630Z,18.23
2019-02-17T04:49:54.513Z,15.63
2019-02-17T04:52:25.375Z,18.00
2019-02-17T04:54:56.253Z,16.43
2019-02-17T04:57:27.165Z,14.83
2019-02-17T04:59:59.617Z,19.10
2019-02-17T05:02:30.495Z,20.80
2019-02-17T05:05:01.367Z,18.63
2019-02-17T05:07:32.240Z,18.90
2019-02-17T05:10:03.115Z,19.73
2019-02-17T05:12:33.933Z,15.93
2019-02-17T05:15:05.114Z,14.77
2019-02-17T05:17:35.917Z,21.40
2019-02-17T05:20:06.981Z,16.50
2019-02-17T05:22:39.430Z,19.33
2019-02-17T05:25:10.550Z,21.13
2019-02-17T05:27:41.478Z,15.97
2019-02-17T05:30:12.544Z,13.77
2019-02-17T05:32:43.551Z,17.13
2019-02-17T05:35:14.529Z,15.53
2019-02-17T05:37:45.418Z,17.53
2019-02-17T05:40:16.376Z,21.50
2019-02-17T05:42:47.332Z,17.73
2019-02-17T05:45:20.152Z,19.83
2019-02-17T05:47:51.052Z,17.40
2019-02-17T05:50:21.941Z,17.07
2019-02-17T05:52:52.829Z,16.03
2019-02-17T05:55:23.764Z,16.97
2019-02-17T05:57:54.769Z,18.83
2019-02-17T06:00:29.334Z,18.33
2019-02-17T06:03:00.295Z,17.33
2019-02-17T06:05:31.174Z,15.67
2019-02-17T06:08:02.079Z,19.67
2019-02-17T06:10:32.978Z,16.60
2019-02-17T06:13:03.888Z,16.63
2019-02-17T06:15:34.890Z,16.63
2019-02-17T06:18:05.931Z,19.97
2019-02-17T06:20:36.842Z,17.80
2019-02-17T06:23:07.668Z,17.07
2019-02-17T06:25:38.512Z,17.67
2019-02-17T06:28:09.502Z,17.93
2019-02-17T06:30:40.421Z,17.33
2019-02-17T06:33:11.305Z,17.43
2019-02-17T06:35:42.470Z,19.83
2019-02-17T06:38:13.364Z,16.87
2019-02-17T06:40:44.308Z,22.00
2019-02-17T06:43:15.224Z,16.27
2019-02-17T06:45:46.789Z,16.13
2019-02-17T06:48:18.347Z,16.20
2019-02-17T06:50:51.881Z,15.07
2019-02-17T06:53:22.761Z,18.20
2019-02-17T06:56:12.577Z,17.57
2019-02-17T06:58:43.544Z,16.53
2019-02-17T07:01:24.133Z,17.00
2019-02-17T07:03:46.966Z,13.20
2019-02-17T07:06:37.886Z,15.23
2019-02-17T07:09:08.990Z,17.90
2019-02-17T07:11:39.949Z,18.40
2019-02-17T07:14:10.996Z,19.50
2019-02-17T07:16:41.914Z,14.83
2019-02-17T07:19:13.052Z,17.60
2019-02-17T07:21:44.019Z,19.53
2019-02-17T07:24:15.029Z,15.23
2019-02-17T07:26:45.929Z,18.63
2019-02-17T07:29:19.495Z,16.77
2019-02-17T07:31:50.516Z,16.93
2019-02-17T07:34:21.500Z,17.90
2019-02-17T07:36:52.546Z,17.37
2019-02-17T07:39:23.625Z,25.03
2019-02-17T07:41:54.730Z,30.13
2019-02-17T07:44:25.642Z,26.73
2019-02-17T07:46:56.847Z,25.00
2019-02-17T07:49:27.861Z,23.30
2019-02-17T07:51:58.677Z,25.97
2019-02-17T07:54:29.583Z,25.20
2019-02-17T07:57:00.623Z,19.53
2019-02-17T07:59:31.627Z,21.43
2019-02-17T08:02:02.693Z,20.90
2019-02-17T08:04:33.670Z,22.37
2019-02-17T08:07:04.593Z,24.53
2019-02-17T08:09:35.912Z,22.37
2019-02-17T08:12:07.004Z,21.67
2019-02-17T08:14:38.050Z,18.43
2019-02-17T08:17:08.983Z,19.83
2019-02-17T08:19:39.912Z,19.63
2019-02-17T08:22:10.898Z,19.97
2019-02-17T08:24:42.771Z,20.27
2019-02-17T08:27:13.767Z,21.93
2019-02-17T08:29:44.869Z,23.10
2019-02-17T08:32:15.813Z,22.57
2019-02-17T08:34:47.038Z,19.53
2019-02-17T08:37:17.961Z,25.60
2019-02-17T08:39:49.913Z,18.73
2019-02-17T08:42:21.042Z,23.47
2019-02-17T08:44:51.970Z,25.47
2019-02-17T08:47:23.776Z,25.83
2019-02-17T08:49:54.800Z,21.40
2019-02-17T08:52:25.778Z,20.90
2019-02-17T08:54:56.738Z,19.30
2019-02-17T08:57:27.677Z,23.10
2019-02-17T08:59:58.590Z,22.33
2019-02-17T09:02:29.509Z,28.27
2019-02-17T09:05:00.538Z,21.07
2019-02-17T09:07:31.578Z,21.53
2019-02-17T09:10:04.826Z,21.33
2019-02-17T09:12:35.851Z,21.57
2019-02-17T09:15:08.265Z,19.13
2019-02-17T09:17:39.345Z,23.07
2019-02-17T09:20:10.951Z,19.77
2019-02-17T09:22:41.882Z,21.87
2019-02-17T09:25:12.884Z,23.20
2019-02-17T09:27:43.821Z,22.73
2019-02-17T09:30:16.128Z,23.27
2019-02-17T09:32:47.005Z,23.10
2019-02-17T09:35:17.932Z,21.17
2019-02-17T09:37:48.980Z,24.43
2019-02-17T09:40:20.066Z,23.27
2019-02-17T09:42:51.064Z,21.10
2019-02-17T09:45:22.055Z,22.93
2019-02-17T09:47:55.374Z,25.37
2019-02-17T09:50:26.521Z,19.90
2019-02-17T09:53:18.175Z,20.73
2019-02-17T09:55:49.294Z,21.30
2019-02-17T09:58:20.198Z,22.53
2019-02-17T10:00:51.332Z,21.37
2019-02-17T10:03:22.494Z,21.37
2019-02-17T10:05:53.685Z,25.37
2019-02-17T10:08:25.893Z,24.70
2019-02-17T10:10:58.421Z,23.20
2019-02-17T10:13:30.474Z,23.67
2019-02-17T10:16:01.549Z,22.77
2019-02-17T10:18:32.602Z,24.10
2019-02-17T10:21:03.514Z,25.10
2019-02-17T10:23:34.936Z,18.93
2019-02-17T10:26:05.896Z,24.63
2019-02-17T10:28:42.422Z,22.87
2019-02-17T10:31:09.480Z,23.20
2019-02-17T10:33:40.554Z,19.93
2019-02-17T10:36:11.680Z,23.30
2019-02-17T10:38:42.542Z,22.00
2019-02-17T10:41:13.665Z,20.47
2019-02-17T10:43:45.774Z,22.23
2019-02-17T10:46:18.234Z,17.93
2019-02-17T10:48:49.803Z,21.67
2019-02-17T10:51:20.782Z,23.80
2019-02-17T10:53:53.519Z,23.63
2019-02-17T10:56:24.511Z,19.03
2019-02-17T10:58:55.464Z,23.80
2019-02-17T11:01:26.442Z,20.77
2019-02-17T11:04:05.928Z,21.47
2019-02-17T11:06:37.077Z,24.20
2019-02-17T11:09:23.932Z,23.05
2019-02-17T11:11:57.630Z,20.20
2019-02-17T11:14:29.559Z,20.40
2019-02-17T11:17:00.620Z,23.00
2019-02-17T11:19:31.737Z,24.20
2019-02-17T11:22:03.109Z,17.83
2019-02-17T11:24:34.238Z,20.17
2019-02-17T11:27:05.369Z,20.50
2019-02-17T11:29:36.369Z,20.73
2019-02-17T11:32:07.366Z,20.70
2019-02-17T11:34:38.524Z,20.37
2019-02-17T11:37:09.611Z,19.83
2019-02-17T11:39:41.846Z,19.73
2019-02-17T11:42:12.951Z,22.60
2019-02-17T11:44:47.037Z,19.10
2019-02-17T11:47:18.085Z,20.27
2019-02-17T11:49:51.600Z,20.70
2019-02-17T11:52:23.825Z,20.17
2019-02-17T11:54:55.037Z,23.70
2019-02-17T11:57:26.195Z,20.13
2019-02-17T11:59:57.357Z,23.37
2019-02-17T12:02:30.139Z,20.20
2019-02-17T12:05:01.270Z,19.97
2019-02-17T12:07:35.568Z,19.87
2019-02-17T12:10:06.881Z,20.73
2019-02-17T12:12:38.156Z,22.30
2019-02-17T12:15:14.598Z,20.27
2019-02-17T12:17:45.796Z,21.03
2019-02-17T12:20:36.821Z,22.00
2019-02-17T12:23:16.267Z,20.83
2019-02-17T12:26:21.565Z,18.77
2019-02-17T12:29:03.070Z,22.33
2019-02-17T12:31:36.501Z,22.37
2019-02-17T12:34:07.393Z,21.57
2019-02-17T12:36:38.566Z,19.30
2019-02-17T12:39:10.455Z,20.07
2019-02-17T12:41:41.464Z,22.90
2019-02-17T12:44:12.491Z,18.37
2019-02-17T12:46:43.798Z,18.97
2019-02-17T12:49:14.812Z,17.10
2019-02-17T12:51:46.391Z,14.53
2019-02-17T12:54:17.574Z,16.67
2019-02-17T12:56:48.474Z,19.13
2019-02-17T12:59:19.505Z,16.03
2019-02-17T13:01:51.648Z,14.23
2019-02-17T13:04:22.706Z,17.80
2019-02-17T13:06:53.754Z,14.57
2019-02-17T13:09:24.901Z,16.65
2019-02-17T13:11:55.949Z,17.83
2019-02-17T13:14:26.972Z,21.17
2019-02-17T13:16:57.954Z,16.57
2019-02-17T13:19:28.916Z,13.93
2019-02-17T13:22:00.007Z,15.80
2019-02-17T13:24:31.038Z,15.80
2019-02-17T13:27:03.078Z,15.27
2019-02-17T13:29:35.688Z,18.33
2019-02-17T13:32:06.819Z,13.30
2019-02-17T13:34:42.042Z,17.17
2019-02-17T13:37:13.275Z,14.40
2019-02-17T13:39:46.210Z,13.57
2019-02-17T13:42:17.315Z,15.80
2019-02-17T13:44:49.949Z,15.60
2019-02-17T13:47:21.682Z,14.03
2019-02-17T13:49:53.729Z,15.77
2019-02-17T13:52:24.913Z,16.07
2019-02-17T13:54:56.192Z,18.03
2019-02-17T13:57:28.295Z,17.13
2019-02-17T13:59:59.556Z,13.80
2019-02-17T14:02:30.505Z,15.53
2019-02-17T14:05:01.580Z,16.20
2019-02-17T14:07:33.766Z,16.33
2019-02-17T14:10:06.258Z,15.17
2019-02-17T14:12:39.133Z,14.73
2019-02-17T14:15:12.517Z,17.03
2019-02-17T14:17:43.477Z,13.10
2019-02-17T14:20:14.420Z,12.20
2019-02-17T14:22:45.334Z,13.80
2019-02-17T14:25:17.838Z,15.87
2019-02-17T14:27:49.256Z,13.13
2019-02-17T14:30:20.409Z,14.87
2019-02-17T14:32:51.365Z,13.23
2019-02-17T14:35:22.339Z,14.10
2019-02-17T14:37:53.445Z,12.70
2019-02-17T14:40:24.513Z,12.60
2019-02-17T14:42:57.436Z,13.20
2019-02-17T14:45:28.373Z,13.38
2019-02-17T14:47:59.643Z,14.53
2019-02-17T14:50:32.928Z,11.85
2019-02-17T14:53:05.315Z,13.00
2019-02-17T14:55:36.714Z,12.70
2019-02-17T14:58:07.906Z,13.83
2019-02-17T15:00:38.970Z,12.93
2019-02-17T15:03:09.920Z,10.90
2019-02-17T15:05:40.871Z,11.93
2019-02-17T15:08:12.029Z,10.73
2019-02-17T15:10:43.142Z,13.77
2019-02-17T15:13:14.170Z,11.43
2019-02-17T15:15:45.307Z,11.63
2019-02-17T15:18:18.669Z,9.33
2019-02-17T15:20:49.666Z,11.88
2019-02-17T15:23:20.944Z,11.10
2019-02-17T15:25:52.031Z,10.50
2019-02-17T15:28:23.289Z,11.05
2019-02-17T15:30:54.303Z,9.63
2019-02-17T15:33:27.326Z,10.90
2019-02-17T15:35:58.208Z,10.20
2019-02-17T15:38:29.220Z,9.73
2019-02-17T15:41:00.588Z,12.03
2019-02-17T15:43:31.637Z,12.77
2019-02-17T15:46:02.778Z,11.67
2019-02-17T15:48:34.305Z,13.20
2019-02-17T15:51:06.806Z,10.27
2019-02-17T15:53:38.375Z,10.37
2019-02-17T15:56:09.744Z,11.30
2019-02-17T15:58:42.487Z,10.40
2019-02-17T16:01:14.795Z,10.13
2019-02-17T16:03:46.449Z,12.80
2019-02-17T16:06:25.043Z,11.67
2019-02-17T16:08:57.415Z,10.63
2019-02-17T16:11:28.492Z,9.63
2019-02-17T16:13:59.697Z,12.27
2019-02-17T16:16:31.060Z,9.97
2019-02-17T16:19:02.218Z,9.80
2019-02-17T16:21:36.168Z,9.87
2019-02-17T16:24:07.605Z,10.57
2019-02-17T16:26:40.297Z,12.90
2019-02-17T16:29:11.242Z,15.00
2019-02-17T16:31:42.457Z,12.13
2019-02-17T16:34:13.674Z,11.15
2019-02-17T16:36:46.772Z,12.60
2019-02-17T16:39:17.942Z,10.80
2019-02-17T16:41:50.219Z,11.33
2019-02-17T16:44:21.552Z,12.17
2019-02-17T16:46:52.672Z,10.50
2019-02-17T16:49:24.117Z,9.43
2019-02-17T16:51:55.278Z,9.33
2019-02-17T16:54:27.949Z,11.77
2019-02-17T16:57:00.336Z,11.50
2019-02-17T16:59:31.434Z,10.87
2019-02-17T17:02:02.574Z,10.10
2019-02-17T17:04:34.004Z,10.03
2019-02-17T17:07:05.928Z,9.63
2019-02-17T17:09:37.242Z,10.80
2019-02-17T17:12:08.358Z,10.23
2019-02-17T17:14:39.580Z,12.47
2019-02-17T17:17:11.856Z,11.10
2019-02-17T17:19:44.137Z,10.83
2019-02-17T17:22:15.278Z,10.47
2019-02-17T17:24:46.414Z,10.60
2019-02-17T17:27:17.631Z,12.90
2019-02-17T17:29:48.649Z,13.70
2019-02-17T17:32:21.722Z,10.60
2019-02-17T17:34:58.907Z,7.73
2019-02-17T17:37:25.462Z,9.77
2019-02-17T17:39:56.596Z,10.03
2019-02-17T17:42:27.718Z,10.70
2019-02-17T17:44:58.664Z,12.87
2019-02-17T17:47:29.777Z,8.47
2019-02-17T17:50:02.692Z,9.67
2019-02-17T17:52:35.022Z,10.03
2019-02-17T17:55:09.701Z,10.60
2019-02-17T17:57:42.412Z,11.80
2019-02-17T18:00:16.684Z,12.67
2019-02-17T18:02:48.028Z,13.13
2019-02-17T18:05:19.546Z,12.07
2019-02-17T18:07:50.620Z,13.20
2019-02-17T18:10:21.865Z,14.03
2019-02-17T18:12:53.250Z,14.07
2019-02-17T18:15:25.207Z,14.07
2019-02-17T18:17:58.505Z,17.13
2019-02-17T18:20:29.682Z,14.90
2019-02-17T18:23:00.704Z,15.83
2019-02-17T18:25:31.806Z,15.20
2019-02-17T18:28:02.917Z,16.97
2019-02-17T18:30:33.834Z,17.77
2019-02-17T18:33:04.990Z,17.47
2019-02-17T18:35:36.114Z,16.50
2019-02-17T18:38:07.129Z,16.17
2019-02-17T18:40:44.614Z,17.23
2019-02-17T18:43:11.274Z,16.77
2019-02-17T18:45:42.334Z,18.57
2019-02-17T18:48:13.387Z,18.00
2019-02-17T18:50:44.734Z,18.30
2019-02-17T18:53:15.899Z,20.57
2019-02-17T18:55:47.621Z,15.87
2019-02-17T18:58:18.884Z,15.30
2019-02-17T19:00:50.096Z,15.83
2019-02-17T19:03:22.158Z,19.07
2019-02-17T19:05:53.267Z,14.60
2019-02-17T19:08:24.801Z,16.43
2019-02-17T19:10:55.963Z,17.87
2019-02-17T19:13:26.997Z,14.50
2019-02-17T19:15:59.533Z,19.10
2019-02-17T19:18:30.596Z,17.77
2019-02-17T19:21:01.752Z,16.63
2019-02-17T19:23:32.810Z,18.30
2019-02-17T19:26:03.788Z,15.87
2019-02-17T19:28:35.018Z,17.03
2019-02-17T19:31:06.123Z,20.23
2019-02-17T19:33:37.269Z,17.50
2019-02-17T19:36:08.358Z,16.50
2019-02-17T19:38:39.605Z,15.87
2019-02-17T19:41:10.866Z,15.63
2019-02-17T19:43:42.094Z,13.53
2019-02-17T19:46:13.018Z,14.40
2019-02-17T19:48:44.236Z,15.77
2019-02-17T19:51:15.342Z,18.60
2019-02-17T19:53:46.432Z,16.80
2019-02-17T19:56:18.525Z,17.00
2019-02-17T19:58:49.874Z,19.40
2019-02-17T20:01:20.956Z,21.13
2019-02-17T20:03:57.355Z,22.13
2019-02-17T20:06:31.083Z,22.90
2019-02-17T20:09:10.453Z,23.73
2019-02-17T20:11:41.750Z,23.90
2019-02-17T20:14:13.028Z,21.73
2019-02-17T20:16:44.094Z,22.77
2019-02-17T20:19:15.282Z,21.37
2019-02-17T20:21:47.143Z,21.97
2019-02-17T20:24:18.157Z,18.53
2019-02-17T20:26:51.355Z,17.77
2019-02-17T20:29:22.575Z,17.97
2019-02-17T20:31:53.557Z,18.30
2019-02-17T20:34:24.475Z,17.60
2019-02-17T20:36:55.480Z,14.33
2019-02-17T20:39:26.602Z,17.03
2019-02-17T20:41:57.751Z,15.10
2019-02-17T20:44:28.904Z,15.57
2019-02-17T20:47:01.350Z,15.67
2019-02-17T20:49:32.389Z,16.13
2019-02-17T20:52:03.443Z,14.43
2019-02-17T20:54:37.285Z,15.97
2019-02-17T20:57:09.283Z,13.50
2019-02-17T20:59:40.393Z,15.17
2019-02-17T21:02:11.500Z,11.83
2019-02-17T21:04:43.068Z,14.43
2019-02-17T21:07:16.322Z,12.30
2019-02-17T21:09:46.807Z,13.40
2019-02-17T21:12:17.922Z,12.03
2019-02-17T21:14:48.829Z,14.77
2019-02-17T21:17:19.847Z,13.57
2019-02-17T21:19:52.881Z,14.10
2019-02-17T21:22:23.843Z,13.17
2019-02-17T21:24:54.865Z,15.57
2019-02-17T21:27:25.801Z,15.13
2019-02-17T21:29:56.899Z,14.13
2019-02-17T21:32:27.913Z,17.63
2019-02-17T21:35:00.637Z,17.77
2019-02-17T21:37:31.620Z,12.00
2019-02-17T21:40:02.666Z,11.00
2019-02-17T21:42:33.654Z,13.63
2019-02-17T21:45:06.728Z,15.17
2019-02-17T21:47:39.240Z,13.37
2019-02-17T21:50:11.075Z,13.93
2019-02-17T21:52:42.425Z,12.70
2019-02-17T21:55:14.459Z,14.47
2019-02-17T21:57:45.916Z,11.60
2019-02-17T22:00:17.849Z,13.53
2019-02-17T22:02:49.055Z,11.73
2019-02-17T22:05:20.405Z,12.30
2019-02-17T22:07:51.472Z,13.03
2019-02-17T22:10:24.247Z,10.77
2019-02-17T22:12:55.372Z,15.03
2019-02-17T22:15:26.423Z,12.07
2019-02-17T22:17:57.433Z,11.93
2019-02-17T22:20:28.570Z,14.37
2019-02-17T22:23:01.330Z,12.20
2019-02-17T22:25:32.377Z,15.10
2019-02-17T22:28:03.411Z,11.03
2019-02-17T22:30:34.544Z,10.03
2019-02-17T22:33:05.493Z,10.87
2019-02-17T22:35:36.458Z,12.90
2019-02-17T22:38:09.323Z,13.20
2019-02-17T22:40:40.400Z,12.90
2019-02-17T22:43:12.085Z,13.00
2019-02-17T22:45:43.059Z,9.83
2019-02-17T22:48:14.098Z,14.10
2019-02-17T22:50:45.021Z,11.00
2019-02-17T22:53:16.037Z,13.97
2019-02-17T22:55:47.011Z,10.53
2019-02-17T22:58:18.255Z,15.17
2019-02-17T23:00:58.558Z,12.07
2019-02-17T23:03:31.945Z,13.40
2019-02-17T23:06:03.025Z,11.93
2019-02-17T23:08:35.152Z,11.60
2019-02-17T23:11:06.113Z,12.10
2019-02-17T23:13:37.191Z,9.87
2019-02-17T23:16:08.144Z,11.47
2019-02-17T23:18:39.092Z,11.10
2019-02-17T23:21:10.106Z,11.00
2019-02-17T23:23:41.112Z,11.27
2019-02-17T23:26:12.533Z,11.60
2019-02-17T23:28:43.500Z,11.13
2019-02-17T23:31:15.670Z,11.13
2019-02-17T23:33:46.605Z,12.63
2019-02-17T23:36:17.509Z,10.57
2019-02-17T23:38:48.560Z,11.77
2019-02-17T23:41:19.582Z,12.17
2019-02-17T23:43:50.432Z,9.97
2019-02-17T23:46:21.432Z,12.47
2019-02-17T23:48:52.316Z,9.43
2019-02-17T23:51:23.741Z,11.50
2019-02-17T23:53:56.427Z,10.47
2019-02-17T23:56:27.367Z,10.07
2019-02-17T23:58:58.728Z,9.67
